sensor_id;sensor_type;location;lat;lon;timestamp;P1;durP1;ratioP1;P2;durP2;ratioP2
1122;SDS011;548;48.778;9.252;2023-04-06T04:50:23;24.00;;;20.87;;
1122;SDS011;548;48.778;9.252;2023-04-06T04:52:50;21.33;;;19.47;;
1122;SDS011;548;48.778;9.252;2023-04-06T04:55:16;24.27;;;21.60;;
1122;SDS011;548;48.778;9.252;2023-04-06T04:57:43;19.80;;;18.10;;
1122;SDS011;548;48.778;9.252;2023-04-06T05:00:10;20.57;;;18.67;;
1122;SDS011;548;48.778;9.252;2023-04-06T05:02:38;31.07;;;20.90;;
1122;SDS011;548;48.778;9.252;2023-04-06T05:05:05;23.03;;;20.63;;
1122;SDS011;548;48.778;9.252;2023-04-06T05:07:33;22.67;;;20.37;;
1122;SDS011;548;48.778;9.252;2023-04-06T05:10:00;21.50;;;19.30;;
1122;SDS011;548;48.778;9.252;2023-04-06T05:12:26;24.33;;;21.03;;
1122;SDS011;548;48.778;9.252;2023-04-06T05:14:53;27.03;;;22.17;;
1122;SDS011;548;48.778;9.252;2023-04-06T05:17:20;23.20;;;21.00;;
1122;SDS011;548;48.778;9.252;2023-04-06T05:19:47;22.07;;;19.97;;
1122;SDS011;548;48.778;9.252;2023-04-06T05:22:13;24.33;;;22.13;;
1122;SDS011;548;48.778;9.252;2023-04-06T05:24:43;25.23;;;22.70;;
1122;SDS011;548;48.778;9.252;2023-04-06T05:27:10;22.37;;;20.27;;
1122;SDS011;548;48.778;9.252;2023-04-06T05:29:37;25.50;;;20.70;;
1122;SDS011;548;48.778;9.252;2023-04-06T05:32:04;22.30;;;20.10;;
1122;SDS011;548;48.778;9.252;2023-04-06T05:34:31;25.20;;;22.10;;
1122;SDS011;548;48.778;9.252;2023-04-06T05:36:58;23.67;;;21.40;;
1122;SDS011;548;48.778;9.252;2023-04-06T05:39:24;22.93;;;20.53;;
1122;SDS011;548;48.778;9.252;2023-04-06T05:41:52;21.07;;;18.80;;
1122;SDS011;548;48.778;9.252;2023-04-06T05:44:20;19.00;;;17.07;;
1122;SDS011;548;48.778;9.252;2023-04-06T05:46:46;21.70;;;19.50;;
1122;SDS011;548;48.778;9.252;2023-04-06T05:49:13;19.90;;;18.17;;
1122;SDS011;548;48.778;9.252;2023-04-06T05:51:40;18.67;;;16.87;;
1122;SDS011;548;48.778;9.252;2023-04-06T05:54:06;22.47;;;20.40;;
1122;SDS011;548;48.778;9.252;2023-04-06T05:56:33;18.47;;;16.57;;
1122;SDS011;548;48.778;9.252;2023-04-06T05:59:01;20.97;;;18.77;;
1122;SDS011;548;48.778;9.252;2023-04-06T06:01:28;20.13;;;18.40;;
1122;SDS011;548;48.778;9.252;2023-04-06T06:03:55;21.63;;;19.60;;
1122;SDS011;548;48.778;9.252;2023-04-06T06:06:21;22.40;;;20.20;;
1122;SDS011;548;48.778;9.252;2023-04-06T06:08:48;22.63;;;20.70;;
1122;SDS011;548;48.778;9.252;2023-04-06T06:11:15;19.47;;;17.77;;
1122;SDS011;548;48.778;9.252;2023-04-06T06:13:41;23.07;;;20.80;;
1122;SDS011;548;48.778;9.252;2023-04-06T06:16:09;21.27;;;19.47;;
1122;SDS011;548;48.778;9.252;2023-04-06T06:18:36;19.13;;;17.60;;
1122;SDS011;548;48.778;9.252;2023-04-06T06:21:03;20.40;;;17.90;;
1122;SDS011;548;48.778;9.252;2023-04-06T06:23:30;19.83;;;18.03;;
1122;SDS011;548;48.778;9.252;2023-04-06T06:25:57;21.07;;;18.83;;
1122;SDS011;548;48.778;9.252;2023-04-06T06:28:23;21.63;;;19.50;;
1122;SDS011;548;48.778;9.252;2023-04-06T06:30:51;19.60;;;17.40;;
1122;SDS011;548;48.778;9.252;2023-04-06T06:33:19;21.07;;;19.00;;
1122;SDS011;548;48.778;9.252;2023-04-06T06:35:45;19.43;;;18.00;;
1122;SDS011;548;48.778;9.252;2023-04-06T06:38:12;17.63;;;16.17;;
1122;SDS011;548;48.778;9.252;2023-04-06T06:40:39;20.87;;;19.27;;
1122;SDS011;548;48.778;9.252;2023-04-06T06:43:06;19.83;;;18.33;;
1122;SDS011;548;48.778;9.252;2023-04-06T06:45:33;21.83;;;19.60;;
1122;SDS011;548;48.778;9.252;2023-04-06T06:47:59;21.30;;;19.50;;
1122;SDS011;548;48.778;9.252;2023-04-06T06:50:27;19.70;;;17.60;;
1122;SDS011;548;48.778;9.252;2023-04-06T06:52:54;18.50;;;16.97;;
1122;SDS011;548;48.778;9.252;2023-04-06T06:55:21;18.37;;;16.77;;
1122;SDS011;548;48.778;9.252;2023-04-06T06:57:47;21.43;;;19.27;;
1122;SDS011;548;48.778;9.252;2023-04-06T07:00:14;19.20;;;17.50;;
1122;SDS011;548;48.778;9.252;2023-04-06T07:02:41;20.00;;;18.40;;
1122;SDS011;548;48.778;9.252;2023-04-06T07:05:08;21.10;;;19.00;;
1122;SDS011;548;48.778;9.252;2023-04-06T07:07:36;18.67;;;16.93;;
1122;SDS011;548;48.778;9.252;2023-04-06T07:10:03;19.03;;;16.93;;
1122;SDS011;548;48.778;9.252;2023-04-06T07:12:30;21.43;;;19.57;;
1122;SDS011;548;48.778;9.252;2023-04-06T07:14:57;19.50;;;17.47;;
1122;SDS011;548;48.778;9.252;2023-04-06T07:17:24;21.00;;;19.40;;
1122;SDS011;548;48.778;9.252;2023-04-06T07:19:50;19.43;;;17.53;;
1122;SDS011;548;48.778;9.252;2023-04-06T07:22:17;19.77;;;18.00;;
1122;SDS011;548;48.778;9.252;2023-04-06T07:24:45;19.43;;;17.60;;
1122;SDS011;548;48.778;9.252;2023-04-06T07:27:12;20.13;;;18.53;;
1122;SDS011;548;48.778;9.252;2023-04-06T07:29:38;19.30;;;17.90;;
1122;SDS011;548;48.778;9.252;2023-04-06T07:32:05;17.47;;;16.07;;
1122;SDS011;548;48.778;9.252;2023-04-06T07:34:32;17.90;;;16.50;;
1122;SDS011;548;48.778;9.252;2023-04-06T07:36:59;20.40;;;18.90;;
1122;SDS011;548;48.778;9.252;2023-04-06T07:39:26;18.90;;;17.30;;
1122;SDS011;548;48.778;9.252;2023-04-06T07:41:54;20.63;;;19.03;;
1122;SDS011;548;48.778;9.252;2023-04-06T07:44:21;19.40;;;18.00;;
1122;SDS011;548;48.778;9.252;2023-04-06T07:46:47;19.13;;;17.73;;
1122;SDS011;548;48.778;9.252;2023-04-06T07:49:14;19.63;;;18.10;;
1122;SDS011;548;48.778;9.252;2023-04-06T07:51:41;18.77;;;16.93;;
1122;SDS011;548;48.778;9.252;2023-04-06T07:54:07;18.93;;;17.27;;
1122;SDS011;548;48.778;9.252;2023-04-06T07:56:34;20.30;;;18.60;;
1122;SDS011;548;48.778;9.252;2023-04-06T07:59:02;21.30;;;19.57;;
1122;SDS011;548;48.778;9.252;2023-04-06T08:01:29;18.93;;;17.53;;
1122;SDS011;548;48.778;9.252;2023-04-06T08:03:56;19.80;;;18.13;;
1122;SDS011;548;48.778;9.252;2023-04-06T08:06:23;20.87;;;19.37;;
1122;SDS011;548;48.778;9.252;2023-04-06T08:08:50;18.53;;;17.13;;
1122;SDS011;548;48.778;9.252;2023-04-06T08:11:16;20.03;;;18.40;;
1122;SDS011;548;48.778;9.252;2023-04-06T08:13:43;20.10;;;18.37;;
1122;SDS011;548;48.778;9.252;2023-04-06T08:16:11;21.63;;;19.90;;
1122;SDS011;548;48.778;9.252;2023-04-06T08:18:38;21.13;;;19.47;;
1122;SDS011;548;48.778;9.252;2023-04-06T08:21:04;20.83;;;19.30;;
1122;SDS011;548;48.778;9.252;2023-04-06T08:23:31;20.67;;;19.00;;
1122;SDS011;548;48.778;9.252;2023-04-06T08:25:58;20.90;;;19.30;;
1122;SDS011;548;48.778;9.252;2023-04-06T08:28:25;20.23;;;18.83;;
1122;SDS011;548;48.778;9.252;2023-04-06T08:30:51;21.37;;;19.90;;
1122;SDS011;548;48.778;9.252;2023-04-06T08:33:19;21.57;;;19.63;;
1122;SDS011;548;48.778;9.252;2023-04-06T08:35:46;21.17;;;19.63;;
1122;SDS011;548;48.778;9.252;2023-04-06T08:38:13;22.60;;;20.60;;
1122;SDS011;548;48.778;9.252;2023-04-06T08:40:39;20.43;;;18.93;;
1122;SDS011;548;48.778;9.252;2023-04-06T08:43:08;23.03;;;21.10;;
1122;SDS011;548;48.778;9.252;2023-04-06T08:45:38;19.90;;;18.33;;
1122;SDS011;548;48.778;9.252;2023-04-06T08:48:06;21.50;;;19.80;;
1122;SDS011;548;48.778;9.252;2023-04-06T08:50:35;20.20;;;18.60;;
1122;SDS011;548;48.778;9.252;2023-04-06T08:53:05;21.40;;;19.70;;
1122;SDS011;548;48.778;9.252;2023-04-06T08:55:33;21.87;;;20.17;;
1122;SDS011;548;48.778;9.252;2023-04-06T08:58:00;20.40;;;18.80;;
1122;SDS011;548;48.778;9.252;2023-04-06T09:00:27;22.20;;;20.40;;
1122;SDS011;548;48.778;9.252;2023-04-06T09:02:55;22.33;;;20.93;;
1122;SDS011;548;48.778;9.252;2023-04-06T09:05:23;21.20;;;19.90;;
1122;SDS011;548;48.778;9.252;2023-04-06T09:07:52;23.73;;;20.83;;
1122;SDS011;548;48.778;9.252;2023-04-06T09:10:19;22.77;;;21.10;;
1122;SDS011;548;48.778;9.252;2023-04-06T09:12:48;21.07;;;19.67;;
1122;SDS011;548;48.778;9.252;2023-04-06T09:15:18;21.50;;;19.77;;
1122;SDS011;548;48.778;9.252;2023-04-06T09:17:46;21.07;;;19.63;;
1122;SDS011;548;48.778;9.252;2023-04-06T09:20:12;21.53;;;19.90;;
1122;SDS011;548;48.778;9.252;2023-04-06T09:22:39;22.90;;;21.13;;
1122;SDS011;548;48.778;9.252;2023-04-06T09:25:08;22.50;;;20.80;;
1122;SDS011;548;48.778;9.252;2023-04-06T09:27:35;20.60;;;19.30;;
1122;SDS011;548;48.778;9.252;2023-04-06T09:30:04;23.17;;;21.67;;
1122;SDS011;548;48.778;9.252;2023-04-06T09:32:32;22.47;;;20.87;;
1122;SDS011;548;48.778;9.252;2023-04-06T09:35:09;22.30;;;20.90;;
1122;SDS011;548;48.778;9.252;2023-04-06T09:37:36;21.73;;;20.33;;
1122;SDS011;548;48.778;9.252;2023-04-06T09:40:04;22.07;;;20.63;;
1122;SDS011;548;48.778;9.252;2023-04-06T09:42:33;21.67;;;20.17;;
1122;SDS011;548;48.778;9.252;2023-04-06T09:45:00;22.57;;;20.83;;
1122;SDS011;548;48.778;9.252;2023-04-06T09:47:27;21.00;;;19.70;;
1122;SDS011;548;48.778;9.252;2023-04-06T09:49:56;22.33;;;20.40;;
1122;SDS011;548;48.778;9.252;2023-04-06T09:52:25;21.60;;;20.10;;
1122;SDS011;548;48.778;9.252;2023-04-06T09:54:54;20.53;;;19.00;;
1122;SDS011;548;48.778;9.252;2023-04-06T09:57:25;21.70;;;20.20;;
1122;SDS011;548;48.778;9.252;2023-04-06T09:59:57;21.33;;;19.80;;
1122;SDS011;548;48.778;9.252;2023-04-06T10:02:34;21.13;;;19.67;;
1122;SDS011;548;48.778;9.252;2023-04-06T10:05:08;18.37;;;17.17;;
1122;SDS011;548;48.778;9.252;2023-04-06T10:07:39;16.30;;;15.40;;
1122;SDS011;548;48.778;9.252;2023-04-06T10:10:06;17.10;;;16.00;;
1122;SDS011;548;48.778;9.252;2023-04-06T10:12:34;18.50;;;17.30;;
1122;SDS011;548;48.778;9.252;2023-04-06T10:15:03;19.60;;;18.30;;
1122;SDS011;548;48.778;9.252;2023-04-06T10:17:30;19.53;;;18.40;;
1122;SDS011;548;48.778;9.252;2023-04-06T10:19:59;19.00;;;17.90;;
1122;SDS011;548;48.778;9.252;2023-04-06T10:22:32;18.70;;;17.57;;
1122;SDS011;548;48.778;9.252;2023-04-06T10:25:05;16.50;;;15.60;;
1122;SDS011;548;48.778;9.252;2023-04-06T10:27:33;17.80;;;16.80;;
1122;SDS011;548;48.778;9.252;2023-04-06T10:30:01;19.30;;;18.20;;
1122;SDS011;548;48.778;9.252;2023-04-06T10:32:31;19.53;;;18.27;;
1122;SDS011;548;48.778;9.252;2023-04-06T10:35:04;18.23;;;17.03;;
1122;SDS011;548;48.778;9.252;2023-04-06T10:37:49;19.07;;;17.97;;
1122;SDS011;548;48.778;9.252;2023-04-06T10:40:22;18.13;;;17.10;;
1122;SDS011;548;48.778;9.252;2023-04-06T10:42:50;18.43;;;17.13;;
1122;SDS011;548;48.778;9.252;2023-04-06T10:45:23;18.87;;;17.67;;
1122;SDS011;548;48.778;9.252;2023-04-06T10:47:52;20.97;;;19.57;;
1122;SDS011;548;48.778;9.252;2023-04-06T10:50:19;18.07;;;17.07;;
1122;SDS011;548;48.778;9.252;2023-04-06T10:52:46;20.17;;;18.50;;
1122;SDS011;548;48.778;9.252;2023-04-06T10:55:24;20.13;;;18.93;;
1122;SDS011;548;48.778;9.252;2023-04-06T10:57:52;18.60;;;17.60;;
1122;SDS011;548;48.778;9.252;2023-04-06T11:00:19;21.70;;;20.20;;
1122;SDS011;548;48.778;9.252;2023-04-06T11:02:49;16.80;;;15.80;;
1122;SDS011;548;48.778;9.252;2023-04-06T11:05:16;17.67;;;16.67;;
1122;SDS011;548;48.778;9.252;2023-04-06T11:07:43;17.63;;;16.63;;
1122;SDS011;548;48.778;9.252;2023-04-06T11:10:10;17.37;;;16.47;;
1122;SDS011;548;48.778;9.252;2023-04-06T11:12:37;18.10;;;17.10;;
1122;SDS011;548;48.778;9.252;2023-04-06T11:15:04;18.17;;;17.03;;
1122;SDS011;548;48.778;9.252;2023-04-06T11:17:33;17.63;;;16.40;;
1122;SDS011;548;48.778;9.252;2023-04-06T11:20:02;20.37;;;19.17;;
1122;SDS011;548;48.778;9.252;2023-04-06T11:22:30;18.67;;;17.47;;
1122;SDS011;548;48.778;9.252;2023-04-06T11:25:04;18.10;;;17.10;;
1122;SDS011;548;48.778;9.252;2023-04-06T11:27:31;18.53;;;17.53;;
1122;SDS011;548;48.778;9.252;2023-04-06T11:29:59;17.80;;;16.80;;
1122;SDS011;548;48.778;9.252;2023-04-06T11:32:26;17.37;;;16.43;;
1122;SDS011;548;48.778;9.252;2023-04-06T11:34:54;18.77;;;17.63;;
1122;SDS011;548;48.778;9.252;2023-04-06T11:37:20;19.50;;;18.30;;
1122;SDS011;548;48.778;9.252;2023-04-06T11:39:48;18.60;;;17.20;;
1122;SDS011;548;48.778;9.252;2023-04-06T11:42:22;18.53;;;17.53;;
1122;SDS011;548;48.778;9.252;2023-04-06T11:44:50;18.50;;;17.30;;
1122;SDS011;548;48.778;9.252;2023-04-06T11:47:18;18.47;;;17.33;;
1122;SDS011;548;48.778;9.252;2023-04-06T11:49:47;17.27;;;16.20;;
1122;SDS011;548;48.778;9.252;2023-04-06T11:52:15;18.37;;;17.20;;
1122;SDS011;548;48.778;9.252;2023-04-06T11:54:44;17.60;;;16.60;;
1122;SDS011;548;48.778;9.252;2023-04-06T11:57:11;18.23;;;17.00;;
1122;SDS011;548;48.778;9.252;2023-04-06T11:59:38;18.20;;;17.20;;
1122;SDS011;548;48.778;9.252;2023-04-06T12:02:04;17.40;;;16.40;;
1122;SDS011;548;48.778;9.252;2023-04-06T12:04:31;17.97;;;16.80;;
1122;SDS011;548;48.778;9.252;2023-04-06T12:06:58;17.30;;;16.20;;
1122;SDS011;548;48.778;9.252;2023-04-06T12:09:26;17.33;;;16.40;;
1122;SDS011;548;48.778;9.252;2023-04-06T12:11:53;15.93;;;15.03;;
1122;SDS011;548;48.778;9.252;2023-04-06T12:14:21;16.33;;;15.43;;
1122;SDS011;548;48.778;9.252;2023-04-06T12:16:47;15.93;;;15.10;;
1122;SDS011;548;48.778;9.252;2023-04-06T12:19:14;18.10;;;17.00;;
1122;SDS011;548;48.778;9.252;2023-04-06T12:21:41;18.37;;;17.30;;
1122;SDS011;548;48.778;9.252;2023-04-06T12:24:07;16.83;;;15.87;;
1122;SDS011;548;48.778;9.252;2023-04-06T12:26:36;16.77;;;15.87;;
1122;SDS011;548;48.778;9.252;2023-04-06T12:29:03;16.40;;;15.50;;
1122;SDS011;548;48.778;9.252;2023-04-06T12:31:32;15.43;;;14.63;;
1122;SDS011;548;48.778;9.252;2023-04-06T12:33:59;15.03;;;14.03;;
1122;SDS011;548;48.778;9.252;2023-04-06T12:36:26;16.43;;;15.53;;
1122;SDS011;548;48.778;9.252;2023-04-06T12:38:52;15.63;;;14.73;;
1122;SDS011;548;48.778;9.252;2023-04-06T12:41:19;16.30;;;15.40;;
1122;SDS011;548;48.778;9.252;2023-04-06T12:43:48;17.20;;;16.30;;
1122;SDS011;548;48.778;9.252;2023-04-06T12:46:15;15.97;;;15.07;;
1122;SDS011;548;48.778;9.252;2023-04-06T12:48:42;15.77;;;14.83;;
1122;SDS011;548;48.778;9.252;2023-04-06T12:51:09;18.40;;;17.30;;
1122;SDS011;548;48.778;9.252;2023-04-06T12:53:36;18.67;;;17.60;;
1122;SDS011;548;48.778;9.252;2023-04-06T12:56:09;17.33;;;16.30;;
1122;SDS011;548;48.778;9.252;2023-04-06T12:58:37;18.53;;;17.53;;
1122;SDS011;548;48.778;9.252;2023-04-06T13:01:06;16.07;;;15.20;;
1122;SDS011;548;48.778;9.252;2023-04-06T13:03:33;17.30;;;16.30;;
1122;SDS011;548;48.778;9.252;2023-04-06T13:06:00;17.10;;;16.10;;
1122;SDS011;548;48.778;9.252;2023-04-06T13:08:27;18.30;;;17.30;;
1122;SDS011;548;48.778;9.252;2023-04-06T13:10:54;16.70;;;15.60;;
1122;SDS011;548;48.778;9.252;2023-04-06T13:13:22;16.90;;;16.00;;
1122;SDS011;548;48.778;9.252;2023-04-06T13:15:51;17.87;;;16.87;;
1122;SDS011;548;48.778;9.252;2023-04-06T13:18:19;16.93;;;15.93;;
1122;SDS011;548;48.778;9.252;2023-04-06T13:20:46;17.33;;;16.43;;
1122;SDS011;548;48.778;9.252;2023-04-06T13:23:13;18.30;;;17.40;;
1122;SDS011;548;48.778;9.252;2023-04-06T13:25:40;17.97;;;16.97;;
1122;SDS011;548;48.778;9.252;2023-04-06T13:28:07;17.00;;;16.17;;
1122;SDS011;548;48.778;9.252;2023-04-06T13:30:33;17.90;;;16.80;;
1122;SDS011;548;48.778;9.252;2023-04-06T13:33:01;17.50;;;16.50;;
1122;SDS011;548;48.778;9.252;2023-04-06T13:35:29;17.27;;;16.37;;
1122;SDS011;548;48.778;9.252;2023-04-06T13:37:56;18.23;;;17.30;;
1122;SDS011;548;48.778;9.252;2023-04-06T13:40:22;18.10;;;16.97;;
1122;SDS011;548;48.778;9.252;2023-04-06T13:42:49;17.83;;;16.90;;
1122;SDS011;548;48.778;9.252;2023-04-06T13:45:16;18.17;;;17.20;;
1122;SDS011;548;48.778;9.252;2023-04-06T13:47:43;17.90;;;16.93;;
1122;SDS011;548;48.778;9.252;2023-04-06T13:50:10;18.70;;;17.60;;
1122;SDS011;548;48.778;9.252;2023-04-06T13:52:38;17.00;;;15.90;;
1122;SDS011;548;48.778;9.252;2023-04-06T13:55:05;16.40;;;15.40;;
1122;SDS011;548;48.778;9.252;2023-04-06T13:57:32;17.83;;;16.83;;
1122;SDS011;548;48.778;9.252;2023-04-06T14:00:01;17.20;;;16.10;;
1122;SDS011;548;48.778;9.252;2023-04-06T14:02:27;19.13;;;18.03;;
1122;SDS011;548;48.778;9.252;2023-04-06T14:04:54;16.43;;;15.53;;
1122;SDS011;548;48.778;9.252;2023-04-06T14:07:21;16.10;;;15.10;;
1122;SDS011;548;48.778;9.252;2023-04-06T14:09:49;16.47;;;15.20;;
1122;SDS011;548;48.778;9.252;2023-04-06T14:12:16;16.53;;;15.53;;
1122;SDS011;548;48.778;9.252;2023-04-06T14:14:42;17.20;;;16.10;;
1122;SDS011;548;48.778;9.252;2023-04-06T14:17:09;16.43;;;15.60;;
1122;SDS011;548;48.778;9.252;2023-04-06T14:19:36;16.23;;;15.33;;
1122;SDS011;548;48.778;9.252;2023-04-06T14:22:02;18.83;;;17.73;;
1122;SDS011;548;48.778;9.252;2023-04-06T14:24:30;16.30;;;15.30;;
1122;SDS011;548;48.778;9.252;2023-04-06T14:26:59;16.67;;;15.70;;
1122;SDS011;548;48.778;9.252;2023-04-06T14:29:26;16.73;;;15.73;;
1122;SDS011;548;48.778;9.252;2023-04-06T14:31:52;17.90;;;16.70;;
1122;SDS011;548;48.778;9.252;2023-04-06T14:34:24;17.37;;;16.40;;
1122;SDS011;548;48.778;9.252;2023-04-06T14:36:51;15.67;;;14.67;;
1122;SDS011;548;48.778;9.252;2023-04-06T14:39:18;16.70;;;15.70;;
1122;SDS011;548;48.778;9.252;2023-04-06T14:41:44;16.63;;;15.80;;
1122;SDS011;548;48.778;9.252;2023-04-06T14:44:13;17.57;;;16.47;;
1122;SDS011;548;48.778;9.252;2023-04-06T14:46:40;16.17;;;15.17;;
1122;SDS011;548;48.778;9.252;2023-04-06T14:49:07;17.30;;;16.13;;
1122;SDS011;548;48.778;9.252;2023-04-06T14:51:34;18.00;;;17.07;;
1122;SDS011;548;48.778;9.252;2023-04-06T14:54:01;16.67;;;15.73;;
1122;SDS011;548;48.778;9.252;2023-04-06T14:56:28;17.23;;;16.27;;
1122;SDS011;548;48.778;9.252;2023-04-06T14:58:57;16.57;;;15.30;;
1122;SDS011;548;48.778;9.252;2023-04-06T15:01:26;16.57;;;15.37;;
1122;SDS011;548;48.778;9.252;2023-04-06T15:03:53;16.70;;;15.80;;
1122;SDS011;548;48.778;9.252;2023-04-06T15:06:20;15.63;;;14.83;;
1122;SDS011;548;48.778;9.252;2023-04-06T15:08:47;15.20;;;14.40;;
1122;SDS011;548;48.778;9.252;2023-04-06T15:11:14;16.63;;;15.33;;
1122;SDS011;548;48.778;9.252;2023-04-06T15:13:41;16.60;;;15.80;;
1122;SDS011;548;48.778;9.252;2023-04-06T15:16:08;16.50;;;15.50;;
1122;SDS011;548;48.778;9.252;2023-04-06T15:18:36;17.30;;;16.33;;
1122;SDS011;548;48.778;9.252;2023-04-06T15:21:03;16.30;;;15.40;;
1122;SDS011;548;48.778;9.252;2023-04-06T15:23:30;17.30;;;16.20;;
1122;SDS011;548;48.778;9.252;2023-04-06T15:25:58;16.17;;;14.93;;
1122;SDS011;548;48.778;9.252;2023-04-06T15:28:24;16.23;;;15.13;;
1122;SDS011;548;48.778;9.252;2023-04-06T15:30:51;16.53;;;15.53;;
1122;SDS011;548;48.778;9.252;2023-04-06T15:33:19;16.83;;;15.83;;
1122;SDS011;548;48.778;9.252;2023-04-06T15:35:48;17.00;;;16.00;;
1122;SDS011;548;48.778;9.252;2023-04-06T15:38:14;17.03;;;15.97;;
1122;SDS011;548;48.778;9.252;2023-04-06T15:40:42;15.23;;;14.43;;
1122;SDS011;548;48.778;9.252;2023-04-06T15:43:10;15.10;;;14.17;;
1122;SDS011;548;48.778;9.252;2023-04-06T15:45:37;16.33;;;15.40;;
1122;SDS011;548;48.778;9.252;2023-04-06T15:48:04;18.00;;;16.90;;
1122;SDS011;548;48.778;9.252;2023-04-06T15:50:31;16.83;;;15.93;;
1122;SDS011;548;48.778;9.252;2023-04-06T15:52:59;16.87;;;15.50;;
1122;SDS011;548;48.778;9.252;2023-04-06T15:55:25;16.40;;;15.30;;
1122;SDS011;548;48.778;9.252;2023-04-06T15:57:52;17.33;;;15.97;;
1122;SDS011;548;48.778;9.252;2023-04-06T16:00:19;17.87;;;16.70;;
1122;SDS011;548;48.778;9.252;2023-04-06T16:02:46;15.30;;;14.30;;
1122;SDS011;548;48.778;9.252;2023-04-06T16:05:13;14.97;;;14.07;;
1122;SDS011;548;48.778;9.252;2023-04-06T16:07:40;15.70;;;14.70;;
1122;SDS011;548;48.778;9.252;2023-04-06T16:10:09;14.83;;;13.83;;
1122;SDS011;548;48.778;9.252;2023-04-06T16:12:36;14.43;;;13.53;;
1122;SDS011;548;48.778;9.252;2023-04-06T16:15:04;14.37;;;13.57;;
1122;SDS011;548;48.778;9.252;2023-04-06T16:17:31;15.87;;;14.87;;
1122;SDS011;548;48.778;9.252;2023-04-06T16:19:58;16.83;;;15.83;;
1122;SDS011;548;48.778;9.252;2023-04-06T16:22:25;16.27;;;14.97;;
1122;SDS011;548;48.778;9.252;2023-04-06T16:24:53;15.63;;;14.63;;
1122;SDS011;548;48.778;9.252;2023-04-06T16:27:21;16.30;;;15.03;;
1122;SDS011;548;48.778;9.252;2023-04-06T16:29:48;15.40;;;14.30;;
1122;SDS011;548;48.778;9.252;2023-04-06T16:32:14;15.10;;;14.10;;
1122;SDS011;548;48.778;9.252;2023-04-06T16:34:41;17.03;;;15.70;;
1122;SDS011;548;48.778;9.252;2023-04-06T16:37:08;16.47;;;15.37;;
1122;SDS011;548;48.778;9.252;2023-04-06T16:39:34;15.47;;;14.50;;
1122;SDS011;548;48.778;9.252;2023-04-06T16:42:01;15.27;;;14.20;;
1122;SDS011;548;48.778;9.252;2023-04-06T16:44:29;17.67;;;16.63;;
1122;SDS011;548;48.778;9.252;2023-04-06T16:46:56;17.53;;;16.33;;
1122;SDS011;548;48.778;9.252;2023-04-06T16:49:24;17.30;;;16.10;;
1122;SDS011;548;48.778;9.252;2023-04-06T16:51:50;17.93;;;16.63;;
1122;SDS011;548;48.778;9.252;2023-04-06T16:54:17;16.10;;;15.00;;
1122;SDS011;548;48.778;9.252;2023-04-06T16:56:44;15.33;;;14.40;;
1122;SDS011;548;48.778;9.252;2023-04-06T16:59:10;17.53;;;16.17;;
1122;SDS011;548;48.778;9.252;2023-04-06T17:01:39;18.07;;;16.37;;
1122;SDS011;548;48.778;9.252;2023-04-06T17:04:05;17.60;;;16.40;;
1122;SDS011;548;48.778;9.252;2023-04-06T17:06:32;18.27;;;16.47;;
1122;SDS011;548;48.778;9.252;2023-04-06T17:08:59;15.60;;;14.60;;
1122;SDS011;548;48.778;9.252;2023-04-06T17:11:25;16.83;;;15.73;;
1122;SDS011;548;48.778;9.252;2023-04-06T17:13:52;15.40;;;14.40;;
1122;SDS011;548;48.778;9.252;2023-04-06T17:16:19;17.00;;;15.93;;
1122;SDS011;548;48.778;9.252;2023-04-06T17:18:47;17.40;;;16.07;;
1122;SDS011;548;48.778;9.252;2023-04-06T17:21:13;19.17;;;17.37;;
1122;SDS011;548;48.778;9.252;2023-04-06T17:23:41;18.70;;;17.40;;
1122;SDS011;548;48.778;9.252;2023-04-06T17:26:08;19.93;;;18.33;;
1122;SDS011;548;48.778;9.252;2023-04-06T17:28:35;18.27;;;16.70;;
1122;SDS011;548;48.778;9.252;2023-04-06T17:31:05;17.57;;;16.37;;
1122;SDS011;548;48.778;9.252;2023-04-06T17:33:33;18.83;;;17.60;;
1122;SDS011;548;48.778;9.252;2023-04-06T17:36:02;17.70;;;16.50;;
1122;SDS011;548;48.778;9.252;2023-04-06T17:38:29;16.37;;;15.27;;
1122;SDS011;548;48.778;9.252;2023-04-06T17:40:56;17.57;;;16.20;;
1122;SDS011;548;48.778;9.252;2023-04-06T17:43:23;15.47;;;14.27;;
1122;SDS011;548;48.778;9.252;2023-04-06T17:45:49;16.93;;;15.63;;
1122;SDS011;548;48.778;9.252;2023-04-06T17:48:16;15.30;;;14.20;;
1122;SDS011;548;48.778;9.252;2023-04-06T17:50:44;15.30;;;14.10;;
1122;SDS011;548;48.778;9.252;2023-04-06T17:53:12;14.93;;;13.93;;
1122;SDS011;548;48.778;9.252;2023-04-06T17:55:40;15.33;;;14.00;;
1122;SDS011;548;48.778;9.252;2023-04-06T17:58:07;15.67;;;14.67;;
1122;SDS011;548;48.778;9.252;2023-04-06T18:00:34;14.20;;;13.10;;
1122;SDS011;548;48.778;9.252;2023-04-06T18:03:01;13.53;;;12.30;;
1122;SDS011;548;48.778;9.252;2023-04-06T18:05:28;14.40;;;13.40;;
1122;SDS011;548;48.778;9.252;2023-04-06T18:07:54;17.53;;;14.27;;
1122;SDS011;548;48.778;9.252;2023-04-06T18:10:23;14.27;;;13.17;;
1122;SDS011;548;48.778;9.252;2023-04-06T18:12:50;13.80;;;12.70;;
1122;SDS011;548;48.778;9.252;2023-04-06T18:15:16;13.40;;;12.40;;
1122;SDS011;548;48.778;9.252;2023-04-06T18:17:43;15.57;;;14.17;;
1122;SDS011;548;48.778;9.252;2023-04-06T18:20:11;15.23;;;14.13;;
1122;SDS011;548;48.778;9.252;2023-04-06T18:22:39;15.30;;;14.13;;
1122;SDS011;548;48.778;9.252;2023-04-06T18:25:06;14.60;;;13.57;;
1122;SDS011;548;48.778;9.252;2023-04-06T18:27:34;14.27;;;12.97;;
1122;SDS011;548;48.778;9.252;2023-04-06T18:30:01;13.13;;;12.13;;
1122;SDS011;548;48.778;9.252;2023-04-06T18:32:29;12.97;;;12.07;;
1122;SDS011;548;48.778;9.252;2023-04-06T18:34:55;14.17;;;13.17;;
1122;SDS011;548;48.778;9.252;2023-04-06T18:37:22;12.13;;;11.33;;
1122;SDS011;548;48.778;9.252;2023-04-06T18:39:50;12.73;;;11.83;;
1122;SDS011;548;48.778;9.252;2023-04-06T18:42:17;16.30;;;15.17;;
1122;SDS011;548;48.778;9.252;2023-04-06T18:44:45;14.87;;;13.67;;
1122;SDS011;548;48.778;9.252;2023-04-06T18:47:12;15.27;;;13.97;;
1122;SDS011;548;48.778;9.252;2023-04-06T18:49:39;15.10;;;13.63;;
1122;SDS011;548;48.778;9.252;2023-04-06T18:52:06;14.70;;;13.43;;
1122;SDS011;548;48.778;9.252;2023-04-06T18:54:33;15.57;;;14.47;;
1122;SDS011;548;48.778;9.252;2023-04-06T18:56:59;16.17;;;14.77;;
1122;SDS011;548;48.778;9.252;2023-04-06T18:59:26;15.40;;;14.20;;
1122;SDS011;548;48.778;9.252;2023-04-06T19:01:56;13.27;;;12.27;;
1122;SDS011;548;48.778;9.252;2023-04-06T19:04:23;17.00;;;15.53;;
1122;SDS011;548;48.778;9.252;2023-04-06T19:06:50;15.40;;;13.97;;
1122;SDS011;548;48.778;9.252;2023-04-06T19:09:16;14.10;;;13.00;;
1122;SDS011;548;48.778;9.252;2023-04-06T19:11:43;14.67;;;13.37;;
1122;SDS011;548;48.778;9.252;2023-04-06T19:14:10;12.27;;;11.43;;
1122;SDS011;548;48.778;9.252;2023-04-06T19:16:36;12.47;;;11.50;;
1122;SDS011;548;48.778;9.252;2023-04-06T19:19:07;11.37;;;10.67;;
1122;SDS011;548;48.778;9.252;2023-04-06T19:21:33;12.03;;;11.10;;
1122;SDS011;548;48.778;9.252;2023-04-06T19:24:01;11.63;;;10.83;;
1122;SDS011;548;48.778;9.252;2023-04-06T19:26:28;12.17;;;11.33;;
1122;SDS011;548;48.778;9.252;2023-04-06T19:28:56;12.77;;;11.97;;
1122;SDS011;548;48.778;9.252;2023-04-06T19:31:23;11.50;;;10.70;;
1122;SDS011;548;48.778;9.252;2023-04-06T19:33:51;10.70;;;10.00;;
1122;SDS011;548;48.778;9.252;2023-04-06T19:36:20;10.03;;;9.37;;
1122;SDS011;548;48.778;9.252;2023-04-06T19:38:47;11.87;;;11.17;;
1122;SDS011;548;48.778;9.252;2023-04-06T19:41:13;11.33;;;10.57;;
1122;SDS011;548;48.778;9.252;2023-04-06T19:43:40;11.87;;;11.07;;
1122;SDS011;548;48.778;9.252;2023-04-06T19:46:07;11.87;;;11.00;;
1122;SDS011;548;48.778;9.252;2023-04-06T19:48:34;10.30;;;9.60;;
1122;SDS011;548;48.778;9.252;2023-04-06T19:51:00;11.20;;;10.40;;
1122;SDS011;548;48.778;9.252;2023-04-06T19:53:29;10.13;;;9.50;;